sensor_id;sensor_type;location;lat;lon;timestamp;pressure;altitude;pressure_sealevel;temperature;humidity
43553;BME280;29153;42.696;23.218;2022-12-11T00:02:12;92465.98;;;9.63;100.00
43553;BME280;29153;42.696;23.218;2022-12-11T00:04:40;92447.87;;;9.73;100.00
43553;BME280;29153;42.696;23.218;2022-12-11T00:07:07;92453.58;;;9.69;100.00
43553;BME280;29153;42.696;23.218;2022-12-11T00:09:35;92463.47;;;9.66;100.00
43553;BME280;29153;42.696;23.218;2022-12-11T00:12:03;92447.47;;;9.77;100.00
43553;BME280;29153;42.696;23.218;2022-12-11T00:14:32;92426.73;;;9.73;100.00
43553;BME280;29153;42.696;23.218;2022-12-11T00:17:00;92439.14;;;9.67;100.00
43553;BME280;29153;42.696;23.218;2022-12-11T00:19:27;92453.34;;;9.68;100.00
43553;BME280;29153;42.696;23.218;2022-12-11T00:21:55;92460.90;;;9.64;100.00
43553;BME280;29153;42.696;23.218;2022-12-11T00:24:23;92475.36;;;9.66;100.00
43553;BME280;29153;42.696;23.218;2022-12-11T00:26:50;92458.55;;;9.71;100.00
43553;BME280;29153;42.696;23.218;2022-12-11T00:29:18;92450.83;;;9.72;100.00
43553;BME280;29153;42.696;23.218;2022-12-11T00:31:45;92478.75;;;9.75;100.00
43553;BME280;29153;42.696;23.218;2022-12-11T00:34:13;92434.75;;;9.85;100.00
43553;BME280;29153;42.696;23.218;2022-12-11T00:36:41;92452.63;;;9.74;100.00
43553;BME280;29153;42.696;23.218;2022-12-11T00:39:08;92436.20;;;9.59;100.00
43553;BME280;29153;42.696;23.218;2022-12-11T00:41:36;92427.31;;;9.64;100.00
43553;BME280;29153;42.696;23.218;2022-12-11T00:44:03;92418.98;;;9.68;100.00
43553;BME280;29153;42.696;23.218;2022-12-11T00:46:31;92411.41;;;9.73;100.00
43553;BME280;29153;42.696;23.218;2022-12-11T00:48:59;92401.66;;;9.65;100.00
43553;BME280;29153;42.696;23.218;2022-12-11T00:51:28;92415.39;;;9.58;100.00
43553;BME280;29153;42.696;23.218;2022-12-11T00:54:12;92412.17;;;9.58;100.00
43553;BME280;29153;42.696;23.218;2022-12-11T00:56:39;92445.69;;;9.60;100.00
43553;BME280;29153;42.696;23.218;2022-12-11T00:59:07;92422.88;;;9.71;100.00
43553;BME280;29153;42.696;23.218;2022-12-11T01:01:35;92433.58;;;9.74;100.00
43553;BME280;29153;42.696;23.218;2022-12-11T01:04:02;92423.35;;;9.64;100.00
43553;BME280;29153;42.696;23.218;2022-12-11T01:06:30;92468.89;;;9.70;100.00
43553;BME280;29153;42.696;23.218;2022-12-11T01:08:57;92430.28;;;9.77;100.00
43553;BME280;29153;42.696;23.218;2022-12-11T01:11:43;92435.13;;;9.75;100.00
43553;BME280;29153;42.696;23.218;2022-12-11T01:14:11;92451.02;;;9.81;100.00
43553;BME280;29153;42.696;23.218;2022-12-11T01:16:38;92436.75;;;9.88;100.00
43553;BME280;29153;42.696;23.218;2022-12-11T01:19:06;92449.72;;;9.96;100.00
43553;BME280;29153;42.696;23.218;2022-12-11T01:21:34;92435.33;;;10.05;100.00
43553;BME280;29153;42.696;23.218;2022-12-11T01:24:02;92417.72;;;10.92;100.00
43553;BME280;29153;42.696;23.218;2022-12-11T01:26:29;92396.95;;;11.39;100.00
43553;BME280;29153;42.696;23.218;2022-12-11T01:28:57;92385.16;;;11.67;100.00
43553;BME280;29153;42.696;23.218;2022-12-11T01:31:24;92392.78;;;11.81;100.00
43553;BME280;29153;42.696;23.218;2022-12-11T01:33:55;92363.27;;;11.95;100.00
43553;BME280;29153;42.696;23.218;2022-12-11T01:36:23;92355.09;;;12.00;100.00
43553;BME280;29153;42.696;23.218;2022-12-11T01:38:50;92384.93;;;12.15;100.00
43553;BME280;29153;42.696;23.218;2022-12-11T01:41:20;92387.45;;;12.23;100.00
43553;BME280;29153;42.696;23.218;2022-12-11T01:43:57;92387.33;;;12.26;100.00
43553;BME280;29153;42.696;23.218;2022-12-11T01:46:25;92368.09;;;12.23;100.00
43553;BME280;29153;42.696;23.218;2022-12-11T01:48:52;92367.23;;;12.19;100.00
43553;BME280;29153;42.696;23.218;2022-12-11T01:51:20;92358.84;;;12.05;100.00
43553;BME280;29153;42.696;23.218;2022-12-11T01:53:58;92353.21;;;12.06;100.00
43553;BME280;29153;42.696;23.218;2022-12-11T01:56:22;92353.53;;;12.05;100.00
43553;BME280;29153;42.696;23.218;2022-12-11T01:58:53;92369.68;;;12.06;100.00
43553;BME280;29153;42.696;23.218;2022-12-11T02:01:33;92346.91;;;12.05;100.00
43553;BME280;29153;42.696;23.218;2022-12-11T02:04:01;92335.19;;;12.06;100.00
43553;BME280;29153;42.696;23.218;2022-12-11T02:06:42;92335.09;;;12.02;100.00
43553;BME280;29153;42.696;23.218;2022-12-11T02:09:11;92346.67;;;12.04;100.00
43553;BME280;29153;42.696;23.218;2022-12-11T02:12:00;92328.75;;;12.07;100.00
43553;BME280;29153;42.696;23.218;2022-12-11T02:17:28;92295.58;;;12.13;97.75
43553;BME280;29153;42.696;23.218;2022-12-11T02:23:02;92280.06;;;12.21;96.26
43553;BME280;29153;42.696;23.218;2022-12-11T02:31:00;92255.33;;;12.39;93.75
43553;BME280;29153;42.696;23.218;2022-12-11T02:33:35;92263.69;;;12.47;93.60
43553;BME280;29153;42.696;23.218;2022-12-11T02:35:58;92261.48;;;12.49;94.13
43553;BME280;29153;42.696;23.218;2022-12-11T02:38:29;92257.98;;;12.39;95.87
43553;BME280;29153;42.696;23.218;2022-12-11T02:40:59;92259.84;;;12.44;97.99
43553;BME280;29153;42.696;23.218;2022-12-11T02:43:29;92246.72;;;12.57;99.63
43553;BME280;29153;42.696;23.218;2022-12-11T02:45:58;92246.72;;;12.57;99.63
43553;BME280;29153;42.696;23.218;2022-12-11T02:48:27;92247.36;;;12.60;100.00
43553;BME280;29153;42.696;23.218;2022-12-11T02:50:57;92246.45;;;12.62;100.00
43553;BME280;29153;42.696;23.218;2022-12-11T02:53:27;92269.94;;;12.60;100.00
43553;BME280;29153;42.696;23.218;2022-12-11T02:56:00;92278.07;;;12.67;100.00
43553;BME280;29153;42.696;23.218;2022-12-11T02:58:31;92269.00;;;12.68;100.00
43553;BME280;29153;42.696;23.218;2022-12-11T03:01:00;92264.72;;;12.79;99.53
43553;BME280;29153;42.696;23.218;2022-12-11T03:03:29;92259.21;;;12.78;100.00
43553;BME280;29153;42.696;23.218;2022-12-11T03:05:56;92245.45;;;12.83;99.36
43553;BME280;29153;42.696;23.218;2022-12-11T03:08:24;92240.23;;;12.86;99.50
43553;BME280;29153;42.696;23.218;2022-12-11T03:10:51;92235.38;;;12.82;99.14
43553;BME280;29153;42.696;23.218;2022-12-11T03:13:20;92259.63;;;12.81;98.98
43553;BME280;29153;42.696;23.218;2022-12-11T03:15:55;92255.00;;;12.93;98.54
43553;BME280;29153;42.696;23.218;2022-12-11T03:21:04;92248.80;;;12.95;98.62
43553;BME280;29153;42.696;23.218;2022-12-11T03:23:47;92296.02;;;13.02;97.96
43553;BME280;29153;42.696;23.218;2022-12-11T03:26:14;92267.02;;;13.03;98.28
43553;BME280;29153;42.696;23.218;2022-12-11T03:29:01;92264.02;;;13.04;97.95
43553;BME280;29153;42.696;23.218;2022-12-11T03:31:30;92273.10;;;13.03;98.22
43553;BME280;29153;42.696;23.218;2022-12-11T03:34:02;92243.56;;;12.99;98.81
43553;BME280;29153;42.696;23.218;2022-12-11T03:36:35;92226.70;;;13.01;98.67
43553;BME280;29153;42.696;23.218;2022-12-11T03:39:06;92233.57;;;13.02;98.87
43553;BME280;29153;42.696;23.218;2022-12-11T03:41:35;92271.44;;;13.05;98.57
43553;BME280;29153;42.696;23.218;2022-12-11T03:44:04;92256.38;;;13.03;99.43
43553;BME280;29153;42.696;23.218;2022-12-11T03:46:35;92277.20;;;13.01;99.08
43553;BME280;29153;42.696;23.218;2022-12-11T03:49:06;92311.00;;;13.00;99.57
43553;BME280;29153;42.696;23.218;2022-12-11T03:51:34;92287.66;;;12.94;100.00
43553;BME280;29153;42.696;23.218;2022-12-11T03:54:03;92317.06;;;13.01;100.00
43553;BME280;29153;42.696;23.218;2022-12-11T03:56:32;92310.00;;;12.99;100.00
43553;BME280;29153;42.696;23.218;2022-12-11T03:59:00;92323.20;;;12.95;100.00
43553;BME280;29153;42.696;23.218;2022-12-11T04:01:28;92325.48;;;13.03;99.08
43553;BME280;29153;42.696;23.218;2022-12-11T04:03:56;92318.53;;;12.98;97.96
43553;BME280;29153;42.696;23.218;2022-12-11T04:06:24;92348.29;;;13.04;97.68
43553;BME280;29153;42.696;23.218;2022-12-11T04:08:51;92342.73;;;13.09;96.68
43553;BME280;29153;42.696;23.218;2022-12-11T04:11:19;92360.62;;;13.18;95.37
43553;BME280;29153;42.696;23.218;2022-12-11T04:14:03;92363.25;;;13.24;94.14
43553;BME280;29153;42.696;23.218;2022-12-11T04:16:49;92350.20;;;13.19;94.71
43553;BME280;29153;42.696;23.218;2022-12-11T04:19:17;92406.48;;;13.21;95.11
43553;BME280;29153;42.696;23.218;2022-12-11T04:22:03;92414.70;;;13.16;95.50
43553;BME280;29153;42.696;23.218;2022-12-11T04:24:49;92424.13;;;13.13;95.64
43553;BME280;29153;42.696;23.218;2022-12-11T04:27:17;92430.20;;;13.14;95.71
43553;BME280;29153;42.696;23.218;2022-12-11T04:29:47;92420.91;;;13.08;94.67
43553;BME280;29153;42.696;23.218;2022-12-11T04:32:14;92437.74;;;13.06;95.39
43553;BME280;29153;42.696;23.218;2022-12-11T04:34:42;92438.41;;;13.09;94.86
43553;BME280;29153;42.696;23.218;2022-12-11T04:37:10;92433.22;;;13.12;94.73
43553;BME280;29153;42.696;23.218;2022-12-11T04:39:37;92453.58;;;13.08;94.04
43553;BME280;29153;42.696;23.218;2022-12-11T04:42:05;92454.36;;;13.09;94.35
43553;BME280;29153;42.696;23.218;2022-12-11T04:44:33;92451.89;;;13.10;94.20
43553;BME280;29153;42.696;23.218;2022-12-11T04:47:01;92463.13;;;13.03;94.44
43553;BME280;29153;42.696;23.218;2022-12-11T04:49:28;92484.06;;;13.05;94.46
43553;BME280;29153;42.696;23.218;2022-12-11T04:51:56;92474.89;;;12.96;94.36
43553;BME280;29153;42.696;23.218;2022-12-11T04:54:23;92485.85;;;12.95;94.22
43553;BME280;29153;42.696;23.218;2022-12-11T04:56:51;92485.20;;;12.92;92.53
43553;BME280;29153;42.696;23.218;2022-12-11T04:59:18;92479.85;;;12.98;91.65
43553;BME280;29153;42.696;23.218;2022-12-11T05:01:46;92490.06;;;12.96;91.86
43553;BME280;29153;42.696;23.218;2022-12-11T05:04:14;92475.45;;;12.90;92.16
43553;BME280;29153;42.696;23.218;2022-12-11T05:06:41;92475.45;;;12.90;92.16
43553;BME280;29153;42.696;23.218;2022-12-11T05:09:12;92465.06;;;12.85;91.76
43553;BME280;29153;42.696;23.218;2022-12-11T05:11:40;92469.72;;;12.88;92.44
43553;BME280;29153;42.696;23.218;2022-12-11T05:14:07;92461.30;;;12.79;92.49
43553;BME280;29153;42.696;23.218;2022-12-11T05:16:35;92462.44;;;12.78;92.67
43553;BME280;29153;42.696;23.218;2022-12-11T05:19:02;92461.89;;;12.73;92.92
43553;BME280;29153;42.696;23.218;2022-12-11T05:21:30;92462.89;;;12.74;92.96
43553;BME280;29153;42.696;23.218;2022-12-11T05:23:58;92464.55;;;12.73;93.18
43553;BME280;29153;42.696;23.218;2022-12-11T05:26:25;92450.81;;;12.77;93.27
43553;BME280;29153;42.696;23.218;2022-12-11T05:28:53;92457.13;;;12.72;93.37
43553;BME280;29153;42.696;23.218;2022-12-11T05:31:23;92451.05;;;12.72;93.22
43553;BME280;29153;42.696;23.218;2022-12-11T05:33:52;92440.64;;;12.73;93.12
43553;BME280;29153;42.696;23.218;2022-12-11T05:36:20;92447.41;;;12.70;93.67
43553;BME280;29153;42.696;23.218;2022-12-11T05:38:48;92441.97;;;12.67;93.30
43553;BME280;29153;42.696;23.218;2022-12-11T05:41:18;92437.80;;;12.66;94.13
43553;BME280;29153;42.696;23.218;2022-12-11T05:43:46;92443.34;;;12.61;95.38
43553;BME280;29153;42.696;23.218;2022-12-11T05:46:16;92443.34;;;12.61;95.38
43553;BME280;29153;42.696;23.218;2022-12-11T05:48:47;92437.99;;;12.67;95.25
43553;BME280;29153;42.696;23.218;2022-12-11T05:51:15;92433.36;;;12.70;95.36
43553;BME280;29153;42.696;23.218;2022-12-11T05:53:44;92433.13;;;12.63;96.05
43553;BME280;29153;42.696;23.218;2022-12-11T05:56:20;92429.92;;;12.63;95.78
43553;BME280;29153;42.696;23.218;2022-12-11T05:58:46;92441.42;;;12.67;95.84
43553;BME280;29153;42.696;23.218;2022-12-11T06:01:22;92434.91;;;12.65;95.80
43553;BME280;29153;42.696;23.218;2022-12-11T06:03:45;92429.47;;;12.73;95.18
43553;BME280;29153;42.696;23.218;2022-12-11T06:06:13;92440.41;;;12.72;95.17
43553;BME280;29153;42.696;23.218;2022-12-11T06:08:41;92429.69;;;12.68;95.63
43553;BME280;29153;42.696;23.218;2022-12-11T06:11:10;92432.45;;;12.72;95.62
43553;BME280;29153;42.696;23.218;2022-12-11T06:13:38;92432.54;;;12.75;94.98
43553;BME280;29153;42.696;23.218;2022-12-11T06:16:07;92432.54;;;12.75;94.98
43553;BME280;29153;42.696;23.218;2022-12-11T06:18:37;92448.34;;;12.84;95.20
43553;BME280;29153;42.696;23.218;2022-12-11T06:21:22;92448.34;;;12.84;95.20
43553;BME280;29153;42.696;23.218;2022-12-11T06:23:51;92445.80;;;12.88;95.78
43553;BME280;29153;42.696;23.218;2022-12-11T06:26:19;92445.80;;;12.88;95.78
43553;BME280;29153;42.696;23.218;2022-12-11T06:28:47;92451.30;;;12.95;96.01
43553;BME280;29153;42.696;23.218;2022-12-11T06:31:16;92451.30;;;12.95;96.01
43553;BME280;29153;42.696;23.218;2022-12-11T06:33:44;92457.73;;;12.94;96.61
43553;BME280;29153;42.696;23.218;2022-12-11T06:36:15;92465.70;;;12.94;96.53
43553;BME280;29153;42.696;23.218;2022-12-11T06:38:43;92458.13;;;13.02;96.23
43553;BME280;29153;42.696;23.218;2022-12-11T06:41:10;92480.72;;;13.08;95.91
43553;BME280;29153;42.696;23.218;2022-12-11T06:43:39;92475.63;;;13.03;96.04
43553;BME280;29153;42.696;23.218;2022-12-11T06:46:20;92478.84;;;13.02;96.10
43553;BME280;29153;42.696;23.218;2022-12-11T06:48:45;92483.61;;;13.03;95.80
43553;BME280;29153;42.696;23.218;2022-12-11T06:51:18;92482.39;;;13.12;95.18
43553;BME280;29153;42.696;23.218;2022-12-11T06:53:51;92475.61;;;13.15;94.10
43553;BME280;29153;42.696;23.218;2022-12-11T06:56:19;92466.94;;;13.24;93.59
43553;BME280;29153;42.696;23.218;2022-12-11T06:58:48;92460.16;;;13.27;94.07
43553;BME280;29153;42.696;23.218;2022-12-11T07:01:28;92456.52;;;13.25;93.72
43553;BME280;29153;42.696;23.218;2022-12-11T07:03:57;92458.09;;;13.20;94.13
43553;BME280;29153;42.696;23.218;2022-12-11T07:06:26;92460.53;;;13.19;94.19
43553;BME280;29153;42.696;23.218;2022-12-11T07:08:54;92474.49;;;13.22;93.58
43553;BME280;29153;42.696;23.218;2022-12-11T07:11:22;92473.41;;;13.17;93.90
43553;BME280;29153;42.696;23.218;2022-12-11T07:13:50;92485.17;;;13.32;92.17
43553;BME280;29153;42.696;23.218;2022-12-11T07:16:18;92480.38;;;13.43;91.87
43553;BME280;29153;42.696;23.218;2022-12-11T07:18:49;92485.63;;;13.55;90.93
43553;BME280;29153;42.696;23.218;2022-12-11T07:21:19;92492.83;;;13.55;90.75
43553;BME280;29153;42.696;23.218;2022-12-11T07:23:48;92492.14;;;13.58;90.06
43553;BME280;29153;42.696;23.218;2022-12-11T07:26:17;92512.38;;;13.68;89.96
43553;BME280;29153;42.696;23.218;2022-12-11T07:28:46;92512.38;;;13.68;89.96
43553;BME280;29153;42.696;23.218;2022-12-11T07:31:16;92517.57;;;13.87;88.29
43553;BME280;29153;42.696;23.218;2022-12-11T07:33:44;92517.57;;;13.87;88.29
43553;BME280;29153;42.696;23.218;2022-12-11T07:36:12;92525.36;;;13.86;88.11
43553;BME280;29153;42.696;23.218;2022-12-11T07:38:40;92526.80;;;13.83;88.34
43553;BME280;29153;42.696;23.218;2022-12-11T07:41:10;92538.75;;;13.89;88.08
43553;BME280;29153;42.696;23.218;2022-12-11T07:43:38;92547.46;;;13.96;88.25
43553;BME280;29153;42.696;23.218;2022-12-11T07:46:12;92536.56;;;14.01;87.82
43553;BME280;29153;42.696;23.218;2022-12-11T07:48:41;92540.70;;;14.14;88.19
43553;BME280;29153;42.696;23.218;2022-12-11T07:51:17;92540.70;;;14.14;88.19
43553;BME280;29153;42.696;23.218;2022-12-11T07:53:47;92558.36;;;14.28;87.17
43553;BME280;29153;42.696;23.218;2022-12-11T07:56:16;92558.52;;;14.41;86.82
43553;BME280;29153;42.696;23.218;2022-12-11T07:58:43;92567.16;;;14.70;87.16
43553;BME280;29153;42.696;23.218;2022-12-11T08:01:16;92567.16;;;14.70;87.16
43553;BME280;29153;42.696;23.218;2022-12-11T08:03:45;92566.80;;;14.87;87.26
43553;BME280;29153;42.696;23.218;2022-12-11T08:06:13;92581.05;;;14.94;85.00
43553;BME280;29153;42.696;23.218;2022-12-11T08:08:41;92581.05;;;14.94;85.00
43553;BME280;29153;42.696;23.218;2022-12-11T08:11:11;92584.89;;;14.87;85.84
43553;BME280;29153;42.696;23.218;2022-12-11T08:13:40;92584.89;;;14.87;85.84
43553;BME280;29153;42.696;23.218;2022-12-11T08:16:12;92582.20;;;14.78;85.09
43553;BME280;29153;42.696;23.218;2022-12-11T08:18:39;92586.34;;;14.85;85.75
43553;BME280;29153;42.696;23.218;2022-12-11T08:21:10;92588.00;;;14.99;85.63
43553;BME280;29153;42.696;23.218;2022-12-11T08:23:38;92596.33;;;14.72;85.24
43553;BME280;29153;42.696;23.218;2022-12-11T08:26:13;92595.73;;;14.79;86.36
43553;BME280;29153;42.696;23.218;2022-12-11T08:28:36;92592.37;;;14.82;85.61
43553;BME280;29153;42.696;23.218;2022-12-11T08:31:08;92585.49;;;14.81;88.43
43553;BME280;29153;42.696;23.218;2022-12-11T08:33:37;92578.94;;;14.69;87.09
43553;BME280;29153;42.696;23.218;2022-12-11T08:36:06;92584.44;;;14.60;87.50
43553;BME280;29153;42.696;23.218;2022-12-11T08:38:33;92576.16;;;14.81;88.68
43553;BME280;29153;42.696;23.218;2022-12-11T08:41:15;92576.16;;;14.81;88.68
43553;BME280;29153;42.696;23.218;2022-12-11T08:43:40;92583.95;;;14.54;86.65
43553;BME280;29153;42.696;23.218;2022-12-11T08:46:09;92576.59;;;14.57;88.46
43553;BME280;29153;42.696;23.218;2022-12-11T08:48:38;92568.98;;;14.66;88.30
43553;BME280;29153;42.696;23.218;2022-12-11T08:51:09;92581.66;;;14.63;87.63
43553;BME280;29153;42.696;23.218;2022-12-11T08:53:36;92589.09;;;14.47;87.51
43553;BME280;29153;42.696;23.218;2022-12-11T08:56:08;92557.61;;;14.22;90.47
43553;BME280;29153;42.696;23.218;2022-12-11T08:58:35;92557.61;;;14.22;90.47
43553;BME280;29153;42.696;23.218;2022-12-11T09:01:12;92564.69;;;14.08;90.24
43553;BME280;29153;42.696;23.218;2022-12-11T09:03:36;92568.19;;;14.18;91.03
43553;BME280;29153;42.696;23.218;2022-12-11T09:06:06;92568.48;;;14.44;90.56
43553;BME280;29153;42.696;23.218;2022-12-11T09:08:34;92567.13;;;14.85;88.96
43553;BME280;29153;42.696;23.218;2022-12-11T09:11:09;92561.99;;;15.12;87.82
43553;BME280;29153;42.696;23.218;2022-12-11T09:13:32;92564.27;;;15.38;85.91
43553;BME280;29153;42.696;23.218;2022-12-11T09:16:02;92566.48;;;15.52;85.53
43553;BME280;29153;42.696;23.218;2022-12-11T09:18:29;92566.69;;;15.72;85.04
43553;BME280;29153;42.696;23.218;2022-12-11T09:21:00;92560.97;;;15.93;82.99
43553;BME280;29153;42.696;23.218;2022-12-11T09:23:28;92576.36;;;16.00;83.11
43553;BME280;29153;42.696;23.218;2022-12-11T09:25:56;92563.61;;;15.61;82.81
43553;BME280;29153;42.696;23.218;2022-12-11T09:28:24;92568.23;;;15.83;82.77
43553;BME280;29153;42.696;23.218;2022-12-11T09:30:51;92568.23;;;15.83;82.77
43553;BME280;29153;42.696;23.218;2022-12-11T09:33:19;92555.73;;;16.10;81.21
43553;BME280;29153;42.696;23.218;2022-12-11T09:36:02;92554.03;;;16.21;80.53
43553;BME280;29153;42.696;23.218;2022-12-11T09:38:26;92541.95;;;16.63;78.82
43553;BME280;29153;42.696;23.218;2022-12-11T09:40:54;92541.95;;;16.63;78.82
43553;BME280;29153;42.696;23.218;2022-12-11T09:46:15;92542.09;;;16.87;74.89
43553;BME280;29153;42.696;23.218;2022-12-11T09:48:45;92550.68;;;16.86;76.65
43553;BME280;29153;42.696;23.218;2022-12-11T09:53:58;92547.36;;;16.93;75.50
43553;BME280;29153;42.696;23.218;2022-12-11T10:04:57;92514.61;;;16.60;79.61
43553;BME280;29153;42.696;23.218;2022-12-11T10:15:38;92525.05;;;16.68;76.43
43553;BME280;29153;42.696;23.218;2022-12-11T10:18:10;92528.38;;;16.62;77.79
43553;BME280;29153;42.696;23.218;2022-12-11T10:20:37;92534.53;;;16.30;79.07
43553;BME280;29153;42.696;23.218;2022-12-11T10:23:05;92523.98;;;16.27;79.44
43553;BME280;29153;42.696;23.218;2022-12-11T10:25:45;92522.03;;;16.24;79.14
43553;BME280;29153;42.696;23.218;2022-12-11T10:28:15;92531.34;;;16.11;78.58
43553;BME280;29153;42.696;23.218;2022-12-11T10:30:56;92530.30;;;16.06;78.08
43553;BME280;29153;42.696;23.218;2022-12-11T10:33:30;92534.34;;;16.19;78.77
43553;BME280;29153;42.696;23.218;2022-12-11T10:35:56;92529.20;;;15.98;79.61
43553;BME280;29153;42.696;23.218;2022-12-11T10:38:29;92526.23;;;16.03;79.68
43553;BME280;29153;42.696;23.218;2022-12-11T10:41:10;92526.86;;;15.83;81.97
43553;BME280;29153;42.696;23.218;2022-12-11T10:43:45;92523.27;;;15.75;83.07
43553;BME280;29153;42.696;23.218;2022-12-11T10:46:28;92517.31;;;15.63;83.59
43553;BME280;29153;42.696;23.218;2022-12-11T10:48:55;92524.41;;;15.36;83.32
43553;BME280;29153;42.696;23.218;2022-12-11T10:54:15;92512.56;;;15.53;84.50
43553;BME280;29153;42.696;23.218;2022-12-11T10:56:34;92507.13;;;15.59;82.79
43553;BME280;29153;42.696;23.218;2022-12-11T10:59:03;92499.96;;;15.63;82.45
43553;BME280;29153;42.696;23.218;2022-12-11T11:01:32;92513.52;;;15.64;82.24
43553;BME280;29153;42.696;23.218;2022-12-11T11:04:13;92500.67;;;15.60;84.31
43553;BME280;29153;42.696;23.218;2022-12-11T11:06:41;92502.41;;;15.62;82.64
43553;BME280;29153;42.696;23.218;2022-12-11T11:09:30;92493.58;;;15.38;84.26
43553;BME280;29153;42.696;23.218;2022-12-11T11:11:57;92493.58;;;15.38;84.26
43553;BME280;29153;42.696;23.218;2022-12-11T11:14:25;92497.36;;;15.37;83.94
43553;BME280;29153;42.696;23.218;2022-12-11T11:16:55;92490.21;;;15.13;85.64
43553;BME280;29153;42.696;23.218;2022-12-11T11:19:30;92490.21;;;15.13;85.64
43553;BME280;29153;42.696;23.218;2022-12-11T11:22:06;92489.91;;;14.98;87.28
43553;BME280;29153;42.696;23.218;2022-12-11T11:24:46;92489.91;;;14.98;87.28
43553;BME280;29153;42.696;23.218;2022-12-11T11:27:22;92476.80;;;14.99;86.49
43553;BME280;29153;42.696;23.218;2022-12-11T11:29:46;92456.51;;;14.85;86.66
43553;BME280;29153;42.696;23.218;2022-12-11T11:32:23;92493.22;;;15.11;84.08
43553;BME280;29153;42.696;23.218;2022-12-11T11:34:46;92493.22;;;15.11;84.08
43553;BME280;29153;42.696;23.218;2022-12-11T11:37:33;92495.12;;;15.20;83.86
43553;BME280;29153;42.696;23.218;2022-12-11T11:40:07;92487.55;;;15.22;84.33
43553;BME280;29153;42.696;23.218;2022-12-11T11:45:16;92477.07;;;15.23;82.72
43553;BME280;29153;42.696;23.218;2022-12-11T11:48:00;92483.19;;;15.33;83.64
43553;BME280;29153;42.696;23.218;2022-12-11T11:50:25;92476.39;;;15.36;83.26
43553;BME280;29153;42.696;23.218;2022-12-11T11:53:05;92473.66;;;15.13;82.23
43553;BME280;29153;42.696;23.218;2022-12-11T15:13:22;92859.09;;;4.22;100.00
43553;BME280;29153;42.696;23.218;2022-12-11T15:15:54;92855.36;;;4.30;100.00
43553;BME280;29153;42.696;23.218;2022-12-11T16:15:20;92925.50;;;3.55;100.00
43553;BME280;29153;42.696;23.218;2022-12-11T16:17:48;92930.23;;;3.51;100.00
43553;BME280;29153;42.696;23.218;2022-12-11T16:20:15;92936.80;;;3.48;100.00
43553;BME280;29153;42.696;23.218;2022-12-11T16:22:43;92944.90;;;3.54;100.00
43553;BME280;29153;42.696;23.218;2022-12-11T16:25:11;92950.62;;;3.61;100.00
43553;BME280;29153;42.696;23.218;2022-12-11T16:27:38;92957.41;;;3.68;100.00
43553;BME280;29153;42.696;23.218;2022-12-11T16:30:08;92960.97;;;3.87;100.00
43553;BME280;29153;42.696;23.218;2022-12-11T16:32:37;92958.94;;;3.76;100.00
43553;BME280;29153;42.696;23.218;2022-12-11T16:35:05;92955.53;;;3.73;100.00
43553;BME280;29153;42.696;23.218;2022-12-11T16:37:34;92970.25;;;3.61;100.00
43553;BME280;29153;42.696;23.218;2022-12-11T16:40:04;92968.39;;;3.64;100.00
43553;BME280;29153;42.696;23.218;2022-12-11T16:42:36;92965.27;;;3.68;100.00
43553;BME280;29153;42.696;23.218;2022-12-11T16:45:04;92972.55;;;3.76;100.00
43553;BME280;29153;42.696;23.218;2022-12-11T16:47:32;92963.95;;;3.68;100.00
43553;BME280;29153;42.696;23.218;2022-12-11T16:50:00;92962.36;;;3.72;100.00
43553;BME280;29153;42.696;23.218;2022-12-11T16:52:27;92963.63;;;3.77;100.00
43553;BME280;29153;42.696;23.218;2022-12-11T16:54:56;92959.30;;;3.54;100.00
43553;BME280;29153;42.696;23.218;2022-12-11T16:57:23;92967.65;;;3.56;100.00
43553;BME280;29153;42.696;23.218;2022-12-11T16:59:51;92965.30;;;3.57;100.00
43553;BME280;29153;42.696;23.218;2022-12-11T17:02:20;92961.89;;;3.57;100.00
43553;BME280;29153;42.696;23.218;2022-12-11T17:04:47;92966.37;;;3.49;100.00
43553;BME280;29153;42.696;23.218;2022-12-11T17:07:17;92975.78;;;3.52;100.00
43553;BME280;29153;42.696;23.218;2022-12-11T17:09:45;92983.39;;;3.49;100.00
43553;BME280;29153;42.696;23.218;2022-12-11T17:12:12;92987.84;;;3.48;100.00
43553;BME280;29153;42.696;23.218;2022-12-11T17:14:40;92989.44;;;3.42;100.00
43553;BME280;29153;42.696;23.218;2022-12-11T17:17:08;92998.34;;;3.36;100.00
43553;BME280;29153;42.696;23.218;2022-12-11T17:19:36;92990.22;;;3.40;100.00
43553;BME280;29153;42.696;23.218;2022-12-11T17:22:03;92967.00;;;3.13;100.00
43553;BME280;29153;42.696;23.218;2022-12-11T17:24:34;93004.66;;;3.17;100.00
43553;BME280;29153;42.696;23.218;2022-12-11T17:27:02;93017.48;;;3.24;100.00
43553;BME280;29153;42.696;23.218;2022-12-11T17:29:30;93014.07;;;3.28;100.00
43553;BME280;29153;42.696;23.218;2022-12-11T17:31:57;93008.84;;;3.28;100.00
43553;BME280;29153;42.696;23.218;2022-12-11T17:34:25;93004.63;;;3.35;100.00
43553;BME280;29153;42.696;23.218;2022-12-11T17:36:52;93001.77;;;3.26;100.00
43553;BME280;29153;42.696;23.218;2022-12-11T17:39:22;93002.30;;;3.28;100.00
43553;BME280;29153;42.696;23.218;2022-12-11T17:41:51;92995.22;;;3.31;100.00
43553;BME280;29153;42.696;23.218;2022-12-11T17:44:18;92994.99;;;3.20;100.00
43553;BME280;29153;42.696;23.218;2022-12-11T17:46:49;92984.76;;;3.26;100.00
43553;BME280;29153;42.696;23.218;2022-12-11T17:49:16;92987.91;;;3.28;100.00
43553;BME280;29153;42.696;23.218;2022-12-11T17:51:45;92992.36;;;3.17;100.00
43553;BME280;29153;42.696;23.218;2022-12-11T17:54:13;92988.19;;;3.14;100.00
43553;BME280;29153;42.696;23.218;2022-12-11T17:56:41;92987.42;;;3.06;100.00
43553;BME280;29153;42.696;23.218;2022-12-11T17:59:08;92988.98;;;3.04;100.00